Terminal Aerodrome Forecast
Issued by NWS Wilmington, NC

Current Version | Previous Version | Text Only | Print | Product List | Glossary On
Versions: 1 2 3 4 5 6 7 8 9 10 11 12 13 14
000
FTUS42 KILM 181700
TAFFLO
TAF
KFLO 181722Z 1818/1918 03010KT P6SM VCSH SCT040 OVC080
     FM182200 04011KT 6SM -RA BKN030 OVC050
     FM190000 03012KT 3SM RA BR BKN025 OVC040
     FM190400 04011KT 4SM RA BR BKN006 OVC025=

USA.gov is the U.S. government's official web portal to all federal, state and local government web resources and services.